AirNav   Air Wisconsin Airman Trainee
 
 368 users online  

OR05 Flying M Airport
Yamhill, Oregon, USA

GOING TO YAMHILL?


FAA INFORMATION EFFECTIVE 25 APRIL 2019

Location

FAA Identifier: OR05
Lat/Long: 45-21-41.5000N / 123-21-11.9000W
45-21.691667N / 123-21.198333W
45.3615278 / -123.3533056
(estimated)
Elevation: 448 ft. / 136.6 m (surveyed)
Variation: 19E (1985)
From city: 7 miles W of YAMHILL, OR
Time zone: UTC -7 (UTC -8 during Standard Time)
Zip code: 97148

Airport Operations

Airport use: Private use. Permission required prior to landing
Control tower: no
ARTCC: SEATTLE CENTER
FSS: MC MINNVILLE FLIGHT SERVICE STATION
Attendance: DAYLIGHT HOURS
Wind indicator: yes
Segmented circle: no

Airport Communications

WX ASOS at MMV (14 nm SE): 135.675 (503-434-9153)
WX AWOS-3 at TMK (20 nm W): 120.0 (503-842-8792)

Nearby radio navigation aids

VOR radial/distance  VOR name  Freq  Var
UBGr251/15.8NEWBERG VOR/DME117.4021E
BTGr213/39.5BATTLE GROUND VORTAC116.6021E

 
NDB name  Hdg/Dist  Freq  Var  ID
BANKS203/20.735616EPND .--. -. -..

Airport Services

Airframe service: NONE
Powerplant service: NONE
Bottled oxygen: NONE
Bulk oxygen: NONE

Runway Information

Runway 7/25

Dimensions: 1000 x 40 ft. / 305 x 12 m
Surface: turf/gravel, in fair condition
CENTER 15' GRAVELLED.
RUNWAY 7  RUNWAY 25
Traffic pattern: leftleft
Obstructions: 70 ft. bldg, 55 ft. from runway
ALSO 6 INCH DITCHES.
45 ft. trees, 250 ft. from runway, 90 ft. right of centerline, 5:1 slope to clear
ABRUPT 5' RISE IN TERRAIN TO THRS: 30' TREES 50'R AT 400' BYD THR.

Airport Ownership and Management from official FAA records

Ownership: Privately-owned
Owner: BRYCE G. AND BARBARA J. MITCHELL
23029 NW FLYING M RD
YAMHILL, OR 97148
Phone 503-662-3222
503-662-3611
Manager: BRYCE G. AND BARBARA J. MITCHELL
23029 NW FLYING M RD
YAMHILL, OR 97148
Phone 503-662-3222
OTHER CONTACT WM. REBER 503-662-4542

Airport Operational Statistics

Aircraft based on the field: 1
Single engine airplanes: 1
    
Aircraft operations: avg 38/week *
100% transient general aviation
* for 12-month period ending 31 March 1993

Additional Remarks

GRAVEL ACCESS TRAIL CROSSES RY.
LAND WEST, TKOF EAST.
NO NIGHT LNDGS OR TKOFS ON ARPT.
MOUNTAIN TO SOUTHWEST, TREES ALL QUADRANTS.

Instrument Procedures

There are no published instrument procedures at OR05.

Some nearby airports with instrument procedures:

KMMV - Mc Minnville Municipal Airport (14 nm SE)
KTMK - Tillamook Airport (20 nm W)
KHIO - Portland-Hillsboro Airport (20 nm NE)
KUAO - Aurora State Airport (26 nm E)
KSLE - McNary Field Airport (31 nm SE)
 
Loc | Ops | Rwys | IFR | FBO | Links
Com | Nav | Svcs | Stats | Notes
Area around OR05 (Flying M Airport)
 
Road maps at: MapQuest Bing Google
 
Aerial photo
WARNING: Photo may not be current or correct
Aerial photo of OR05 (Flying M Airport)
Do you have a better or more recent aerial photo of Flying M Airport that you would like to share? If so, please send us your photo.

 
Sectional chart

 
Airport distance calculator
Flying to Flying M Airport? Find the distance to fly.

From to OR05

Sunrise and sunset
Times for 19-May-2019
 Local
(UTC-7)
 Zulu
(UTC)
Morning civil twilight05:0512:05
Sunrise05:4012:40
Sunset20:4003:40
Evening civil twilight21:1504:15

Current date and time
Zulu (UTC)  20-May-2019 05:49:12
Local (UTC-7)  19-May-2019 22:49:12
 
METAR
KMMV 
13nm SE 
200453Z AUTO 23004KT 10SM FEW043 OVC075 11/08 A2982 RMK AO2 SLP096 T01060083 $
KTMK 
20nm W 
200535Z AUTO 16003KT 10SM SCT120 09/08 A2987 RMK AO2
KHIO 
20nm NE 
200453Z 29004KT 10SM SCT041 OVC095 13/09 A2981 RMK AO2 SLP094 T01280089 $
KUAO 
26nm E 
200453Z AUTO 22003KT 10SM OVC036 14/11 A2982 RMK AO2 SLP098 T01390106
TAF
KHIO 
20nm NE 
191952Z 1920/2018 VRB03KT P6SM BKN025 FM192100 VRB03KT P6SM SCT025 BKN035 FM192300 33005KT P6SM BKN050 FM200500 VRB03KT P6SM BKN040 FM201100 VRB02KT P6SM OVC015
NOTAMs
Click for the latest NOTAMs
NOTAMs are issued by the DoD/FAA and will open in a separate window not controlled by AirNav.

 

 
 

Would you like to see your business listed on this page?

 If your business provides an interesting product or service to pilots, flight crews, aircraft, or users of the Flying M Airport, you should consider listing it here.  To start the listing process, click on the button below
 
Add a business
 

Other Pages about Flying M Airport

www.Flying-M-Ranch.com/...
www.omen.com/...
www.wheretofly.com/...
 
Update a link
 
Copyright © AirNav, LLC. All rights reserved. Privacy Policy  Contact